Time;durP1;ratioP1;P1;durP2;ratioP2;P2;SDS_P1;SDS_P2;PMS_P1;PMS_P2;Temp;Humidity;BMP_temperature;BMP_pressure;BME280_temperature;BME280_humidity;BME280_pressure;Samples;Min_cycle;Max_cycle;Signal;HPM_P1;HPM_P2
2023/09/13 00:02:18;;;;;;;6.85;4.63;;;;;;;25.28;59.01;101244.63;4962517;28;20117;-76
2023/09/13 00:04:44;;;;;;;6.88;4.53;;;;;;;25.28;58.94;101244.63;4961988;28;20070;-79
2023/09/13 00:07:09;;;;;;;6.78;4.40;;;;;;;25.25;59.04;101243.06;4963121;28;20491;-78
2023/09/13 00:09:34;;;;;;;6.63;4.20;;;;;;;25.26;58.77;101235.91;4960915;28;20461;-79
2023/09/13 00:12:00;;;;;;;8.25;4.57;;;;;;;25.26;58.78;101236.75;4961640;28;20369;-78
2023/09/13 00:14:25;;;;;;;5.85;4.43;;;;;;;25.25;58.92;101232.41;4962152;28;20325;-78
2023/09/13 00:16:51;;;;;;;8.05;4.28;;;;;;;25.24;58.82;101237.91;4960632;28;20157;-79
2023/09/13 00:19:17;;;;;;;5.93;4.35;;;;;;;25.24;58.97;101238.72;4961116;28;20129;-79
2023/09/13 00:21:43;;;;;;;6.53;4.35;;;;;;;25.24;58.79;101232.56;4961564;28;20480;-79
2023/09/13 00:24:09;;;;;;;6.63;4.85;;;;;;;25.25;58.65;101240.41;4960743;28;20050;-79
2023/09/13 00:26:35;;;;;;;6.80;4.60;;;;;;;25.23;58.68;101238.88;4961942;28;20069;-79
2023/09/13 00:29:00;;;;;;;6.13;4.65;;;;;;;25.24;58.88;101237.91;4961967;28;20484;-79
2023/09/13 00:31:26;;;;;;;6.38;4.63;;;;;;;25.23;58.62;101237.06;4961604;28;20039;-78
2023/09/13 00:33:51;;;;;;;5.50;4.10;;;;;;;25.23;58.91;101234.41;4961892;28;20039;-79
2023/09/13 00:36:16;;;;;;;5.95;4.05;;;;;;;25.23;58.87;101241.56;4961973;28;20389;-79
2023/09/13 00:38:42;;;;;;;8.00;4.18;;;;;;;25.21;58.64;101235.56;4960787;28;20038;-78
2023/09/13 00:41:07;;;;;;;6.25;4.63;;;;;;;25.21;58.78;101243.56;4961229;28;20042;-79
2023/09/13 00:43:32;;;;;;;6.32;4.55;;;;;;;25.20;58.61;101240.06;4961136;28;20039;-79
2023/09/13 00:45:58;;;;;;;6.47;4.55;;;;;;;25.20;58.61;101233.88;4959955;28;20419;-79
2023/09/13 00:48:23;;;;;;;7.05;4.60;;;;;;;25.20;58.69;101240.06;4943701;28;20027;-79
2023/09/13 00:50:50;;;;;;;7.40;4.67;;;;;;;25.20;58.73;101241.88;4960941;28;20614;-79
2023/09/13 00:53:17;;;;;;;6.20;4.70;;;;;;;25.20;58.46;101240.06;4975781;28;20265;-79
2023/09/13 00:55:43;;;;;;;6.53;4.28;;;;;;;25.18;58.59;101239.38;4961586;28;20227;-79
2023/09/13 00:58:09;;;;;;;7.13;4.93;;;;;;;25.19;58.39;101245.56;4962190;28;20365;-76
2023/09/13 01:00:35;;;;;;;6.88;5.03;;;;;;;25.19;58.77;101242.91;4961448;28;20074;-77
2023/09/13 01:03:04;;;;;;;6.50;4.90;;;;;;;25.17;58.59;101240.38;4976242;28;20039;-77
2023/09/13 01:05:30;;;;;;;8.82;4.95;;;;;;;25.17;58.69;101238.53;4960028;28;20043;-75
2023/09/13 01:07:55;;;;;;;6.97;4.70;;;;;;;25.17;58.38;101237.72;4961408;28;20045;-78
2023/09/13 01:10:21;;;;;;;7.32;5.05;;;;;;;25.13;58.65;101229.22;4961701;28;20342;-78
2023/09/13 01:12:46;;;;;;;6.85;5.25;;;;;;;25.16;58.53;101231.53;4961296;28;20027;-79
2023/09/13 01:15:12;;;;;;;7.30;5.00;;;;;;;25.15;58.72;101235.22;4943769;28;20027;-76
2023/09/13 01:18:05;;;;;;;9.02;5.05;;;;;;;25.16;58.67;101238.72;4945562;28;20061;-78
2023/09/13 01:20:55;;;;;;;7.32;5.13;;;;;;;25.15;58.72;101237.03;4941654;29;20047;-78
2023/09/13 01:24:07;;;;;;;7.18;5.20;;;;;;;25.14;58.72;101233.53;4941215;29;20043;-79
2023/09/13 01:26:38;;;;;;;7.75;5.70;;;;;;;25.16;58.38;101236.03;4941538;29;20095;-78
2023/09/13 01:29:06;;;;;;;6.50;4.97;;;;;;;25.15;58.40;101227.22;4939209;29;20492;-78
2023/09/13 01:31:37;;;;;;;7.28;5.10;;;;;;;25.14;58.56;101235.38;4941569;29;20404;-78
2023/09/13 01:34:05;;;;;;;8.55;5.32;;;;;;;25.15;58.61;101247.69;4926466;29;20095;-78
2023/09/13 01:36:30;;;;;;;7.30;5.20;;;;;;;25.14;58.66;101243.38;4944075;29;20125;-79
2023/09/13 01:38:56;;;;;;;7.20;5.57;;;;;;;25.13;58.43;101245.22;4944147;29;20066;-77
2023/09/13 01:41:47;;;;;;;8.38;5.47;;;;;;;25.13;58.80;101241.69;4945679;29;20035;-78
2023/09/13 01:44:14;;;;;;;8.38;5.35;;;;;;;25.13;58.41;101245.22;4927174;29;20158;-79
2023/09/13 01:46:42;;;;;;;8.02;5.20;;;;;;;25.12;58.47;101238.19;4960685;28;20405;-78
2023/09/13 01:49:10;;;;;;;9.40;5.45;;;;;;;25.13;58.49;101247.88;4945558;29;20035;-77
2023/09/13 01:51:37;;;;;;;8.10;5.93;;;;;;;25.13;58.62;101249.69;4944230;29;20071;-76
2023/09/13 01:54:02;;;;;;;9.07;6.30;;;;;;;25.12;58.24;101251.53;4945830;29;20421;-77
2023/09/13 01:56:28;;;;;;;7.07;5.40;;;;;;;25.12;58.67;101258.72;4945403;29;20043;-79
2023/09/13 01:58:53;;;;;;;7.22;5.40;;;;;;;25.12;58.49;101251.53;4945298;29;20303;-79
2023/09/13 02:01:19;;;;;;;8.15;5.80;;;;;;;25.11;58.52;101257.03;4945683;29;20031;-77
2023/09/13 02:03:46;;;;;;;8.68;6.13;;;;;;;25.11;58.43;101260.53;4944972;29;20670;-78
2023/09/13 02:06:14;;;;;;;8.88;5.95;;;;;;;25.11;58.49;101257.03;4960215;28;20051;-78
2023/09/13 02:08:41;;;;;;;8.07;6.50;;;;;;;25.11;58.28;101262.38;4945180;29;20548;-78
2023/09/13 02:11:07;;;;;;;8.65;6.43;;;;;;;25.10;58.45;101261.53;4960046;28;20050;-78
2023/09/13 02:13:33;;;;;;;10.00;7.05;;;;;;;25.10;58.51;101266.88;4945502;29;20058;-79
2023/09/13 02:15:58;;;;;;;8.00;6.60;;;;;;;25.08;58.33;101260.00;4947124;28;20065;-78
2023/09/13 02:18:24;;;;;;;9.95;6.93;;;;;;;25.10;58.42;101274.00;4964915;28;20579;-77
2023/09/13 02:20:49;;;;;;;9.57;6.32;;;;;;;25.10;58.16;101266.00;4963472;28;20547;-77
2023/09/13 02:23:14;;;;;;;9.33;6.83;;;;;;;25.08;58.12;101266.19;4963229;28;20043;-78
2023/09/13 02:25:44;;;;;;;9.30;6.78;;;;;;;25.09;58.42;101269.69;4963425;28;20268;-79
2023/09/13 02:28:11;;;;;;;9.18;7.22;;;;;;;25.10;58.21;101279.34;4963302;28;20484;-79
2023/09/13 02:30:45;;;;;;;10.18;7.65;;;;;;;25.08;58.41;101278.69;4962939;28;20388;-79
2023/09/13 02:33:11;;;;;;;10.07;7.63;;;;;;;25.07;58.47;101277.84;4994874;28;20042;-78
2023/09/13 02:35:36;;;;;;;11.50;7.85;;;;;;;25.08;58.20;101278.69;4963082;28;20049;-79
2023/09/13 02:38:01;;;;;;;10.02;7.60;;;;;;;25.08;58.53;101284.84;4977754;28;20039;-77
2023/09/13 02:40:27;;;;;;;10.80;7.88;;;;;;;25.08;58.11;101287.50;4963251;28;20342;-79
2023/09/13 02:42:52;;;;;;;11.55;8.43;;;;;;;25.07;58.38;101280.53;4978049;28;20057;-78
2023/09/13 02:45:17;;;;;;;10.95;7.85;;;;;;;25.07;58.33;101282.34;4962177;28;20557;-79
2023/09/13 02:47:43;;;;;;;12.25;8.63;;;;;;;25.07;58.57;101271.66;4963375;28;20039;-77
2023/09/13 02:50:09;;;;;;;11.02;7.88;;;;;;;25.06;58.29;101268.19;4977999;28;20038;-79
2023/09/13 02:52:35;;;;;;;10.32;8.23;;;;;;;25.06;58.46;101276.19;4963016;28;20046;-78
2023/09/13 02:55:01;;;;;;;10.82;8.18;;;;;;;25.06;58.19;101278.84;4994594;28;20035;-79
2023/09/13 02:57:27;;;;;;;10.88;7.90;;;;;;;25.05;58.28;101273.66;4963992;28;20027;-77
2023/09/13 02:59:52;;;;;;;11.73;8.70;;;;;;;25.05;58.42;101271.81;4962774;28;20031;-78
2023/09/13 03:02:18;;;;;;;10.70;7.75;;;;;;;25.05;58.11;101279.00;4963902;28;20031;-78
2023/09/13 03:04:44;;;;;;;11.90;7.72;;;;;;;25.05;58.26;101284.34;4962158;28;20045;-77
2023/09/13 03:07:09;;;;;;;9.55;7.70;;;;;;;25.06;58.25;101294.00;4962874;28;20496;-78
2023/09/13 03:09:35;;;;;;;10.40;7.80;;;;;;;25.05;58.31;101287.00;4962908;28;20043;-77
2023/09/13 03:12:01;;;;;;;9.52;7.30;;;;;;;25.04;58.16;101288.84;4962081;28;20039;-78
2023/09/13 03:14:28;;;;;;;11.10;7.90;;;;;;;25.04;58.29;101288.84;4993660;28;20061;-78
2023/09/13 03:16:53;;;;;;;11.35;8.02;;;;;;;25.05;58.13;101289.66;4962247;28;20155;-78
2023/09/13 03:19:19;;;;;;;11.75;7.70;;;;;;;25.05;58.22;101292.34;4962051;28;20198;-78
2023/09/13 03:21:44;;;;;;;10.45;7.82;;;;;;;25.04;58.18;101293.31;4962642;28;20081;-78
2023/09/13 03:24:09;;;;;;;11.13;7.68;;;;;;;25.04;58.15;101290.66;4963403;28;20415;-78
2023/09/13 03:26:35;;;;;;;12.10;8.27;;;;;;;25.04;57.79;101302.16;4961499;28;20038;-78
2023/09/13 03:29:00;;;;;;;11.15;7.93;;;;;;;25.04;57.97;101299.50;4963313;28;20448;-79
2023/09/13 03:34:01;;;;;;;10.18;7.70;;;;;;;25.02;58.21;101296.13;3757443;23;20063;-64
2023/09/13 03:36:30;;;;;;;10.55;7.93;;;;;;;25.02;58.03;101301.47;4969231;28;20037;-66
2023/09/13 03:38:55;;;;;;;10.75;8.35;;;;;;;25.02;58.12;101306.81;4968721;28;20376;-64
2023/09/13 03:41:22;;;;;;;10.40;7.88;;;;;;;25.04;58.20;101309.31;4968534;28;20081;-64
2023/09/13 03:43:49;;;;;;;10.77;8.25;;;;;;;25.04;58.11;101311.97;4968871;28;20037;-64
2023/09/13 03:46:14;;;;;;;11.02;8.38;;;;;;;25.01;57.90;101307.81;4969246;28;20117;-65
2023/09/13 03:48:39;;;;;;;10.90;8.30;;;;;;;25.03;58.13;101302.34;4968924;28;20066;-66
2023/09/13 03:51:07;;;;;;;11.23;8.43;;;;;;;25.03;58.29;101302.34;4968982;28;20116;-65
2023/09/13 03:53:32;;;;;;;10.85;8.57;;;;;;;25.02;58.00;101305.97;4968698;28;20038;-64
2023/09/13 03:55:58;;;;;;;10.35;7.90;;;;;;;25.02;58.03;101314.81;4967842;28;20027;-64
2023/09/13 03:58:24;;;;;;;10.45;7.90;;;;;;;25.02;58.04;101311.31;4968763;28;20030;-67
2023/09/13 04:00:49;;;;;;;12.02;8.30;;;;;;;25.01;58.05;101312.31;4968836;28;20030;-65
2023/09/13 04:03:16;;;;;;;11.43;8.02;;;;;;;25.01;58.07;101306.97;4968518;28;20102;-64
2023/09/13 04:05:41;;;;;;;12.23;8.18;;;;;;;25.00;57.88;101303.47;4968601;28;20093;-67
2023/09/13 04:08:06;;;;;;;10.85;7.95;;;;;;;25.01;58.00;101304.31;4967838;28;20042;-65
2023/09/13 04:10:32;;;;;;;12.43;8.97;;;;;;;25.01;58.13;101296.31;4967327;28;20027;-63
2023/09/13 04:12:57;;;;;;;10.80;8.00;;;;;;;25.02;58.00;101297.97;4967745;28;20749;-64
2023/09/13 04:15:22;;;;;;;10.60;7.87;;;;;;;24.99;57.87;101291.13;4967979;28;20034;-65
2023/09/13 04:17:48;;;;;;;11.23;8.45;;;;;;;25.00;58.04;101298.13;4968146;28;20260;-67
2023/09/13 04:20:13;;;;;;;14.70;8.80;;;;;;;25.00;58.04;101306.13;4968697;28;20065;-67
2023/09/13 04:22:38;;;;;;;10.70;8.02;;;;;;;25.00;57.93;101300.81;4964021;28;20043;-67
2023/09/13 04:25:05;;;;;;;12.68;8.32;;;;;;;24.99;57.99;101299.97;4967563;28;20081;-67
2023/09/13 04:27:31;;;;;;;10.57;8.10;;;;;;;24.99;58.11;101302.66;4968075;28;20125;-67
2023/09/13 04:29:56;;;;;;;12.13;7.88;;;;;;;24.99;58.05;101307.13;4968167;28;20118;-64
2023/09/13 04:32:23;;;;;;;11.43;8.60;;;;;;;24.99;58.14;101313.31;4967404;28;20035;-67
2023/09/13 04:34:49;;;;;;;10.43;7.72;;;;;;;24.97;58.17;101309.94;4968171;28;20031;-64
2023/09/13 04:37:15;;;;;;;10.10;8.15;;;;;;;24.98;58.00;101311.63;4968175;28;20041;-64
2023/09/13 04:39:41;;;;;;;11.85;8.77;;;;;;;24.97;57.89;101309.94;4967513;28;20035;-66
2023/09/13 04:42:06;;;;;;;9.68;7.72;;;;;;;24.96;58.10;101308.28;4967744;28;20038;-64
2023/09/13 04:44:32;;;;;;;9.98;7.65;;;;;;;24.98;58.07;101316.13;4967659;28;20058;-66
2023/09/13 04:46:59;;;;;;;14.32;9.18;;;;;;;24.97;58.09;101309.94;4965248;28;20039;-64
2023/09/13 04:49:25;;;;;;;10.20;7.65;;;;;;;24.96;57.96;101308.28;4967750;28;20030;-64
2023/09/13 04:51:50;;;;;;;11.23;9.05;;;;;;;24.96;58.38;101307.47;4967844;28;20466;-67
2023/09/13 04:54:15;;;;;;;11.90;7.60;;;;;;;24.96;57.88;101316.28;4967333;28;20035;-66
2023/09/13 04:56:41;;;;;;;10.13;7.97;;;;;;;24.96;57.83;101310.97;4967880;28;20279;-67
2023/09/13 04:59:06;;;;;;;10.82;8.43;;;;;;;24.96;57.94;101318.97;4967274;28;20031;-66
2023/09/13 05:01:31;;;;;;;10.65;7.93;;;;;;;24.97;58.16;101311.78;4967726;28;20035;-65
2023/09/13 05:03:58;;;;;;;10.75;8.32;;;;;;;24.96;58.06;101315.47;4966718;28;20375;-65
2023/09/13 05:06:23;;;;;;;10.65;8.18;;;;;;;24.95;57.97;101325.28;4966978;28;20031;-64
2023/09/13 05:08:52;;;;;;;10.43;7.35;;;;;;;24.94;58.05;101326.28;4966561;28;20031;-64
2023/09/13 05:11:17;;;;;;;10.45;7.70;;;;;;;24.94;58.14;101331.63;4967040;28;20031;-64
2023/09/13 05:13:47;;;;;;;10.13;6.93;;;;;;;24.95;57.96;101333.28;4965556;28;20105;-66
2023/09/13 05:16:12;;;;;;;10.95;7.53;;;;;;;24.96;58.06;101336.81;4967016;28;20105;-64
2023/09/13 05:18:37;;;;;;;11.40;8.13;;;;;;;24.95;58.16;101327.13;4967051;28;20122;-65
2023/09/13 05:21:03;;;;;;;10.95;7.95;;;;;;;24.95;57.83;101327.94;4965996;28;20027;-65
2023/09/13 05:23:28;;;;;;;11.13;8.18;;;;;;;24.94;58.02;101323.63;4964873;28;20498;-67
2023/09/13 05:25:55;;;;;;;10.93;7.68;;;;;;;24.92;57.64;101320.25;4966515;28;20073;-66
2023/09/13 05:28:21;;;;;;;10.50;7.55;;;;;;;24.93;57.73;101329.94;4966586;28;20039;-65
2023/09/13 05:30:48;;;;;;;11.00;7.90;;;;;;;24.94;57.90;101326.28;4967030;28;20058;-65
2023/09/13 05:33:14;;;;;;;10.35;7.43;;;;;;;24.93;58.12;101324.59;4974377;28;20089;-66
2023/09/13 05:35:40;;;;;;;11.30;8.13;;;;;;;24.93;57.88;101329.94;4986425;28;20038;-66
2023/09/13 05:38:05;;;;;;;9.80;7.63;;;;;;;24.92;57.85;101330.09;4986187;28;20042;-64
2023/09/13 05:40:30;;;;;;;10.02;7.78;;;;;;;24.92;57.93;101336.25;4986060;28;20327;-64
2023/09/13 05:42:57;;;;;;;9.05;7.25;;;;;;;24.92;57.85;101338.09;4986553;28;20482;-65
2023/09/13 05:45:26;;;;;;;11.02;7.50;;;;;;;24.92;57.80;101343.44;4986316;28;20074;-64
2023/09/13 05:47:51;;;;;;;10.93;8.13;;;;;;;24.92;57.72;101348.75;4986267;28;20749;-63
2023/09/13 05:50:16;;;;;;;9.52;7.47;;;;;;;24.91;57.96;101345.25;4986303;28;20077;-66
2023/09/13 05:52:43;;;;;;;10.57;7.05;;;;;;;24.94;57.89;101354.75;4986430;28;20035;-64
2023/09/13 05:55:09;;;;;;;10.27;7.72;;;;;;;24.91;57.86;101349.75;4986433;28;20505;-65
2023/09/13 05:57:34;;;;;;;9.57;7.43;;;;;;;24.94;57.95;101357.44;4986451;28;20030;-66
2023/09/13 05:59:59;;;;;;;9.40;6.47;;;;;;;24.94;57.77;101362.75;4986389;28;20945;-66
2023/09/13 06:02:25;;;;;;;13.45;8.80;;;;;;;24.97;57.89;101365.94;4986258;28;20031;-65
2023/09/13 06:04:50;;;;;;;8.80;7.47;;;;;;;25.00;57.45;101364.78;4986020;28;20046;-65
2023/09/13 06:07:15;;;;;;;10.15;6.72;;;;;;;24.98;57.82;101366.78;4985227;28;20080;-64
2023/09/13 06:09:41;;;;;;;8.85;6.68;;;;;;;24.99;58.01;101369.31;4967728;28;20041;-67
2023/09/13 06:12:06;;;;;;;12.30;6.57;;;;;;;24.98;58.11;101375.63;4985913;28;20029;-68
2023/09/13 06:14:32;;;;;;;9.27;6.90;;;;;;;24.97;58.12;101371.28;4986220;28;20117;-65
2023/09/13 06:16:57;;;;;;;9.30;6.47;;;;;;;24.96;58.02;101377.63;4986291;28;20035;-65
2023/09/13 06:19:23;;;;;;;8.73;6.70;;;;;;;24.98;58.24;101377.47;4988226;28;20272;-67
2023/09/13 06:21:48;;;;;;;10.75;7.03;;;;;;;24.98;58.38;101383.63;4971324;28;20125;-66
2023/09/13 06:24:14;;;;;;;11.20;6.95;;;;;;;24.96;58.40;101388.28;4989756;28;20034;-67
2023/09/13 06:26:39;;;;;;;9.98;6.97;;;;;;;25.00;58.32;101394.13;4989663;28;20363;-64
2023/09/13 06:29:05;;;;;;;9.88;6.78;;;;;;;24.98;58.35;101388.13;4989524;28;20042;-66
2023/09/13 06:31:31;;;;;;;8.95;6.90;;;;;;;24.98;58.40;101394.28;4989911;28;20046;-66
2023/09/13 06:33:56;;;;;;;9.48;6.65;;;;;;;25.00;58.48;101399.47;4989590;28;20054;-64
2023/09/13 06:36:21;;;;;;;9.40;6.57;;;;;;;25.03;58.41;101400.97;4989698;28;20537;-65
2023/09/13 06:38:47;;;;;;;11.32;7.15;;;;;;;25.01;58.62;101400.28;4989504;28;20120;-64
2023/09/13 06:41:12;;;;;;;8.82;7.00;;;;;;;25.01;58.45;101402.94;4988254;28;20030;-65
2023/09/13 06:43:38;;;;;;;9.15;7.07;;;;;;;24.99;58.43;101408.44;4989445;28;20061;-67
2023/09/13 06:46:04;;;;;;;9.80;6.95;;;;;;;24.98;58.40;101406.78;4988583;28;20114;-66
2023/09/13 06:48:29;;;;;;;10.38;6.57;;;;;;;24.99;58.44;101411.09;4989362;28;20030;-66
2023/09/13 06:50:55;;;;;;;11.10;7.13;;;;;;;24.99;58.50;101406.63;4989236;28;20101;-65
2023/09/13 06:53:20;;;;;;;9.70;6.88;;;;;;;25.01;58.32;101419.81;4989698;28;20034;-67
2023/09/13 06:55:45;;;;;;;8.98;6.57;;;;;;;24.99;58.33;101417.28;4989334;28;20041;-65
2023/09/13 06:58:11;;;;;;;10.90;7.13;;;;;;;24.97;58.05;101416.59;4988999;28;20552;-65
2023/09/13 07:00:36;;;;;;;8.65;6.22;;;;;;;25.00;58.48;101418.13;4971456;28;20031;-66
2023/09/13 07:03:04;;;;;;;10.13;6.80;;;;;;;24.99;58.42;101422.63;4988975;28;20649;-62
2023/09/13 07:05:29;;;;;;;8.60;6.07;;;;;;;24.97;58.24;101432.59;4988769;28;20034;-65
2023/09/13 07:07:54;;;;;;;8.75;6.35;;;;;;;24.97;58.65;101435.25;4989004;28;20085;-66
2023/09/13 07:10:20;;;;;;;9.67;6.33;;;;;;;24.98;58.27;101438.78;4988716;28;20490;-64
2023/09/13 07:12:46;;;;;;;9.20;6.65;;;;;;;24.98;58.52;101433.44;4988892;28;20275;-68
2023/09/13 07:15:11;;;;;;;8.75;7.07;;;;;;;24.98;58.64;101444.94;4988509;28;20035;-66
2023/09/13 07:17:37;;;;;;;8.87;6.93;;;;;;;24.99;58.67;101443.09;4988678;28;20053;-66
2023/09/13 07:20:04;;;;;;;9.88;7.00;;;;;;;24.99;58.33;101437.78;4988558;28;20264;-67
2023/09/13 07:22:30;;;;;;;10.85;6.45;;;;;;;24.97;58.55;101432.59;4985795;28;20037;-64
2023/09/13 07:24:55;;;;;;;11.23;7.35;;;;;;;24.94;58.68;101435.59;4987434;28;20438;-66
2023/09/13 07:27:21;;;;;;;9.82;7.18;;;;;;;24.91;59.15;101435.91;4988261;28;20045;-64
2023/09/13 07:29:47;;;;;;;11.00;8.00;;;;;;;24.88;59.21;101438.88;4987809;28;20386;-66
2023/09/13 07:32:13;;;;;;;9.88;7.88;;;;;;;24.86;59.24;101448.00;4986333;28;20470;-64
2023/09/13 07:34:38;;;;;;;10.07;7.63;;;;;;;24.85;59.30;101454.31;4987127;28;20057;-65
2023/09/13 07:37:04;;;;;;;11.77;8.35;;;;;;;24.84;59.22;101448.16;4987601;28;20069;-65
2023/09/13 07:39:29;;;;;;;12.07;7.45;;;;;;;24.83;59.55;101448.31;4987813;28;20027;-64
2023/09/13 07:41:54;;;;;;;10.77;7.68;;;;;;;24.84;59.27;101456.16;4987755;28;20108;-65
2023/09/13 07:44:19;;;;;;;11.50;7.88;;;;;;;24.81;59.34;101457.28;4987723;28;20437;-63
2023/09/13 07:46:45;;;;;;;11.40;8.32;;;;;;;24.84;59.33;101456.16;4987545;28;20069;-65
2023/09/13 07:49:10;;;;;;;11.63;8.40;;;;;;;24.86;59.21;101458.69;4987289;28;20033;-63
2023/09/13 07:51:36;;;;;;;11.18;7.72;;;;;;;24.85;59.08;101457.00;4987626;28;20462;-64
2023/09/13 07:54:04;;;;;;;10.90;8.13;;;;;;;24.86;59.22;101459.50;4987204;28;20560;-65
2023/09/13 07:56:31;;;;;;;10.95;8.38;;;;;;;24.85;59.19;101471.19;4987445;28;20034;-62
2023/09/13 07:58:56;;;;;;;11.00;7.80;;;;;;;24.88;59.26;101488.69;4987519;28;20034;-66
2023/09/13 08:01:22;;;;;;;9.75;7.00;;;;;;;24.88;58.57;101499.34;4987777;28;20433;-62
2023/09/13 08:03:47;;;;;;;10.88;7.30;;;;;;;24.89;58.87;101501.84;4986807;28;20033;-64
2023/09/13 08:06:12;;;;;;;7.68;5.80;;;;;;;24.91;58.50;101507.88;4987845;28;20033;-67
2023/09/13 08:08:38;;;;;;;8.40;5.80;;;;;;;24.92;58.57;101506.88;4987314;28;20042;-67
2023/09/13 08:11:03;;;;;;;10.05;5.63;;;;;;;24.91;58.45;101504.38;4988989;28;20022;-62
2023/09/13 08:13:29;;;;;;;7.80;5.28;;;;;;;24.89;58.68;101519.69;4987373;28;20117;-65
2023/09/13 08:15:55;;;;;;;7.78;4.88;;;;;;;24.87;58.55;101519.84;4988524;28;20099;-67
2023/09/13 08:18:20;;;;;;;8.98;4.80;;;;;;;24.87;58.46;101522.50;4986308;28;20042;-66
2023/09/13 08:20:46;;;;;;;6.75;4.40;;;;;;;24.89;58.51;101533.84;4987324;28;20030;-65
2023/09/13 08:23:12;;;;;;;7.18;4.30;;;;;;;24.88;58.51;101542.84;4987251;28;20026;-65
2023/09/13 08:25:37;;;;;;;7.15;4.78;;;;;;;24.90;58.44;101540.03;4987500;28;20088;-64
2023/09/13 08:28:03;;;;;;;9.77;4.55;;;;;;;24.89;58.28;101541.84;4987069;28;20030;-66
2023/09/13 08:30:30;;;;;;;11.30;4.22;;;;;;;24.92;58.26;101556.69;4986939;28;20117;-66
2023/09/13 08:32:55;;;;;;;8.40;4.07;;;;;;;24.90;58.08;101559.53;4968404;28;20478;-64
2023/09/13 08:35:20;;;;;;;8.07;4.07;;;;;;;24.91;57.87;101561.22;4986823;28;20037;-68
2023/09/13 08:37:46;;;;;;;8.27;4.07;;;;;;;24.92;58.05;101568.19;4986921;28;20459;-65
2023/09/13 08:40:11;;;;;;;6.72;3.75;;;;;;;24.91;57.80;101577.22;4985969;28;20046;-66
2023/09/13 08:42:39;;;;;;;5.70;3.20;;;;;;;24.92;57.48;101589.53;4986399;28;20083;-66
2023/09/13 08:45:05;;;;;;;4.78;3.33;;;;;;;24.92;57.57;101594.84;4986702;28;20026;-66
2023/09/13 08:47:33;;;;;;;6.05;3.20;;;;;;;24.91;57.70;101598.53;4986346;28;20042;-66
2023/09/13 08:50:01;;;;;;;6.63;3.35;;;;;;;24.90;57.82;101604.00;4986379;28;20081;-64
2023/09/13 08:52:27;;;;;;;4.80;3.03;;;;;;;24.91;57.62;101611.88;4986542;28;20042;-67
2023/09/13 08:54:55;;;;;;;8.20;3.25;;;;;;;24.93;57.21;101611.72;4986394;28;20080;-66
2023/09/13 08:57:22;;;;;;;7.13;2.85;;;;;;;24.92;57.20;101616.19;4986596;28;20022;-65
2023/09/13 08:59:47;;;;;;;4.65;2.85;;;;;;;24.94;57.18;101621.38;4985893;28;20121;-67
2023/09/13 09:02:17;;;;;;;4.60;2.80;;;;;;;24.92;57.05;101634.03;4986351;28;20117;-67
2023/09/13 09:04:43;;;;;;;6.38;2.90;;;;;;;24.92;57.01;101642.00;4986230;28;20034;-67
2023/09/13 09:07:09;;;;;;;4.20;2.60;;;;;;;24.90;57.08;101647.50;4986784;28;20532;-65
2023/09/13 09:09:36;;;;;;;6.43;2.78;;;;;;;24.88;57.12;101644.16;4986419;28;20069;-65
2023/09/13 09:12:03;;;;;;;4.07;2.55;;;;;;;24.85;57.04;101648.94;4986462;28;20101;-69
2023/09/13 09:14:32;;;;;;;4.60;2.60;;;;;;;24.85;56.95;101651.59;4985731;28;20096;-66
2023/09/13 09:17:00;;;;;;;6.43;2.60;;;;;;;24.86;56.79;101656.78;4986433;28;20050;-70
2023/09/13 09:19:26;;;;;;;3.72;2.08;;;;;;;24.86;56.73;101664.78;4986456;28;20109;-67
2023/09/13 09:21:51;;;;;;;4.35;2.10;;;;;;;24.89;56.78;101666.31;4986415;28;20113;-69
2023/09/13 09:24:17;;;;;;;4.22;2.22;;;;;;;24.91;56.84;101672.31;4985977;28;20447;-66
2023/09/13 09:26:44;;;;;;;4.03;2.13;;;;;;;24.92;56.61;101680.16;4986501;28;20039;-65
2023/09/13 09:29:14;;;;;;;3.80;2.08;;;;;;;24.92;56.42;101672.16;4985843;28;20553;-65
2023/09/13 09:31:40;;;;;;;6.55;2.38;;;;;;;24.91;56.44;101675.84;4985460;28;20034;-68
2023/09/13 09:34:08;;;;;;;5.05;2.13;;;;;;;24.92;56.05;101687.34;4968127;28;20188;-69
2023/09/13 09:36:41;;;;;;;3.78;1.70;;;;;;;24.90;56.02;101690.16;4986625;28;20058;-68
2023/09/13 09:39:07;;;;;;;3.60;1.77;;;;;;;24.92;56.18;101690.00;4986193;28;20022;-68
2023/09/13 09:41:34;;;;;;;4.05;1.83;;;;;;;24.93;55.97;101683.69;4986131;28;20077;-68
2023/09/13 09:43:59;;;;;;;4.15;1.95;;;;;;;24.92;55.84;101690.84;4985662;28;21013;-68
2023/09/13 09:46:25;;;;;;;3.35;1.85;;;;;;;24.93;55.81;101697.03;4986377;28;20129;-66
2023/09/13 09:48:51;;;;;;;3.13;1.60;;;;;;;24.92;55.55;101693.50;4967388;28;20034;-64
2023/09/13 09:51:17;;;;;;;6.40;1.90;;;;;;;24.93;55.42;101692.53;4957669;28;20393;-67
2023/09/13 09:53:43;;;;;;;4.35;1.70;;;;;;;24.93;55.59;101702.34;4986613;28;20034;-66
2023/09/13 09:56:11;;;;;;;3.83;1.60;;;;;;;24.94;55.51;101704.03;4989696;28;20066;-67
2023/09/13 09:58:36;;;;;;;3.88;1.73;;;;;;;24.97;55.79;101698.38;4990027;28;20037;-70
2023/09/13 10:01:02;;;;;;;7.15;1.75;;;;;;;24.98;55.15;101700.06;4989958;28;20030;-68
2023/09/13 10:03:32;;;;;;;3.25;1.58;;;;;;;25.01;55.31;101702.44;4989708;28;20034;-64
2023/09/13 10:06:03;;;;;;;5.85;1.50;;;;;;;25.00;55.17;101700.75;4970275;28;20057;-66
2023/09/13 10:08:45;;;;;;;4.57;1.63;;;;;;;24.98;55.36;101702.75;4989440;28;20105;-68
2023/09/13 10:11:16;;;;;;;3.35;1.20;;;;;;;24.96;55.14;101708.22;4989666;28;20034;-67
2023/09/13 10:13:45;;;;;;;4.40;1.60;;;;;;;24.95;55.10;101711.03;4989314;28;20094;-64
2023/09/13 10:16:11;;;;;;;3.28;1.27;;;;;;;24.96;55.08;101712.72;4989283;28;20049;-67
2023/09/13 10:18:43;;;;;;;3.92;1.33;;;;;;;24.95;55.11;101714.53;4989005;28;20451;-65
2023/09/13 10:21:09;;;;;;;3.33;1.42;;;;;;;24.97;55.31;101722.38;4989495;28;20038;-67
2023/09/13 10:23:40;;;;;;;4.32;1.38;;;;;;;24.98;54.85;101726.75;4988871;28;20038;-67
2023/09/13 10:26:10;;;;;;;3.70;1.33;;;;;;;24.99;55.10;101725.72;4967478;28;20133;-67
2023/09/13 10:28:39;;;;;;;2.78;1.30;;;;;;;24.96;54.83;101724.22;4989371;28;20049;-66
2023/09/13 10:31:11;;;;;;;4.45;1.50;;;;;;;25.09;54.81;101734.53;4986206;28;20490;-67
2023/09/13 10:33:39;;;;;;;3.80;1.38;;;;;;;25.18;54.48;101724.78;4984409;28;20054;-65
2023/09/13 10:36:07;;;;;;;5.45;1.30;;;;;;;25.26;54.42;101730.22;4987003;28;20069;-68
2023/09/13 10:38:44;;;;;;;10.45;1.42;;;;;;;25.28;54.18;101730.94;4987740;28;20034;-62
2023/09/13 10:41:17;;;;;;;3.78;1.50;;;;;;;25.33;54.51;101744.66;4987547;28;20146;-65
2023/09/13 10:43:43;;;;;;;4.97;1.25;;;;;;;25.33;54.45;101754.50;4987656;28;20080;-66
2023/09/13 10:46:10;;;;;;;6.38;1.45;;;;;;;25.34;54.34;101756.16;4987496;28;20085;-63
2023/09/13 10:48:38;;;;;;;3.08;1.30;;;;;;;25.34;54.41;101762.34;4989523;28;20210;-64
2023/09/13 10:51:04;;;;;;;3.47;1.25;;;;;;;25.29;54.44;101761.97;4989731;28;20394;-65
2023/09/13 10:53:30;;;;;;;4.03;1.17;;;;;;;25.29;53.99;101769.13;4989449;28;20121;-69
2023/09/13 10:55:56;;;;;;;5.72;1.50;;;;;;;25.30;54.40;101766.28;4988743;28;20459;-66
2023/09/13 10:58:22;;;;;;;4.28;0.90;;;;;;;25.29;54.24;101764.63;4989119;28;20521;-65
2023/09/13 11:00:50;;;;;;;4.82;1.30;;;;;;;25.30;54.35;101765.47;4989242;28;20054;-63
2023/09/13 11:03:19;;;;;;;5.13;1.20;;;;;;;25.31;54.34;101772.47;4989276;28;20037;-64
2023/09/13 11:05:48;;;;;;;3.30;1.20;;;;;;;25.31;54.38;101776.00;4988688;28;20083;-68
2023/09/13 11:08:31;;;;;;;4.28;1.15;;;;;;;25.29;54.07;101780.66;4989244;28;20475;-68
2023/09/13 11:11:05;;;;;;;2.75;1.20;;;;;;;25.31;53.91;101786.66;4988904;28;20039;-68
2023/09/13 11:13:31;;;;;;;4.03;1.30;;;;;;;25.31;54.03;101783.13;4988947;28;20402;-68
2023/09/13 11:16:03;;;;;;;5.15;1.30;;;;;;;25.31;54.11;101785.81;4989324;28;20031;-66
2023/09/13 11:18:28;;;;;;;2.95;1.10;;;;;;;25.31;54.07;101784.00;4988027;28;20088;-68
2023/09/13 11:20:54;;;;;;;4.43;1.42;;;;;;;25.29;54.28;101799.31;4986337;28;20031;-68
2023/09/13 11:23:19;;;;;;;4.57;1.08;;;;;;;25.19;54.50;101793.16;4988268;28;20030;-69